Aérodrome :
LOGIN :

S'inscrire | Disclaimer

   EN    FR    IT 

 










Légende :    VFR   VFR Marginal   IFR   IFR Intensif   IFR Très Intensif
Visi : 
Plafond : 
>= 8 km
>= 3000ft
5 à 8 km
1000 à 3000 ft
1500m à 5 km
500 à 1000 ft
800 à 1500m
200 à 500 ft
< 800m
< 200 ft
Symboles :   Orages  Brouillard  Fortes neiges  Fortes précipitations  Vent > 20 kt
SIGMETs :   Divers  Orages  Givrage  Turbulence  Onde Orograph.  Cendres Volcan.






- Altitude de l'aérodrome : 587 ft
- Code IATA : XCR


LFOK - Chalons Vatry

DERNIER METAR :
  • 141230Z AUTO 23015KT 9999 FEW031 21/14 Q1008 BECMG 22015G25KT

METARs EXPIRÉS :
  • 141200Z AUTO 22014KT 9999 FEW025 BKN054 BKN064 20/14 Q1008 BECMG 22015G25KT
  • 141130Z AUTO 24016KT 9999 FEW029 BKN056 19/13 Q1009 TEMPO 19015G25KT 4500 SHRA BKN020TCU
  • 141100Z AUTO 22017KT 9999 FEW019 BKN042 BKN054 18/13 Q1009 TEMPO 19015G25KT 4500 SHRA BKN020TCU
  • 141030Z AUTO 21015KT 9999 SCT017 BKN022 BKN030 18/14 Q1009 TEMPO 19015G25KT 4500 SHRA BKN020TCU
  • 141000Z AUTO 21015KT 9999 BKN015 BKN023 BKN044 18/15 Q1009 TEMPO 19015G25KT 4500 SHRA BKN020TCU
  • 140930Z AUTO 21015KT 9999 BKN008 BKN012 BKN019 17/15 Q1009 TEMPO 19015G25KT 4500 SHRA BKN020TCU
  • 140900Z AUTO 21012KT 9999 OVC005 15/15 Q1009 NOSIG
  • 140830Z AUTO 21012KT 9999 OVC006 14/14 Q1009 NOSIG
  • 140800Z AUTO 20012KT 4700 2100 +DZ BR OVC005 14/13 Q1009 BECMG 9999 NSW

TAF TAF LFOK
Valide du 14 à 12h jusqu'au 15 à 12h UTC


141100Z 1412/1512 22015G25KT 9999 BKN045
TEMPO 1419/1504 4500 SHRA BKN012 BKN020CB



MET'MAP, la Météo Aéronautique d'un coup d'oeil ! - Copyright ORBIFLY Décembre 2007 - Disclaimer

ORBIFLY MET'MAP TEAM :

Programmation & Développement : Alexandra Zaïnal
Sur une idée originale de : Baudouin d'Aumeries
Soutien technique & logistique : Manuel Goepfert
Assistance : Marc-Olivier Méhu




SOURCES & CREDITS :

   NOAA